M/V Sealink — 9HA3960 — position and weather

sailwx.info

Track history (hours):
 
Tides and Currents Weather Stations Pressure Air Temp Water Temp Dewpoint Dewpoint Depression Visibility Wind Speed Wind Dir Waves Ship Positions

M/V Sealink

Last reported at 2018-Jun-15 23:28 UTC. Time now 2018-Jun-18 05:38 UTC.
Position N 22°11' E 119°46'.

Length 292 m; draft 8.8 m.

Type: Cargo ship. MMSI: 256588000.

Date/timePositionNaut miles runAvg speedWind from/ knotsBaromVisibWave heightAir tempDewpointWater temp
2018-Jun-15 23:28N 22°11' E 119°46'510.8
2018-Jun-15 23:00N 22°16' E 119°48'611.6
2018-Jun-15 22:30N 22°22' E 119°49'612.2
2018-Jun-15 22:00N 22°28' E 119°49'611.8
2018-Jun-15 21:30N 22°34' E 119°49'611.7
2018-Jun-15 20:59N 22°40' E 119°49'511.5
2018-Jun-15 20:30N 22°45' E 119°50'612.1
2018-Jun-15 20:00N 22°51' E 119°50'  
2018-Jun-13 12:10N 31°39' E 123°39'310.5
2018-Jun-13 11:53N 31°42' E 123°40'1411.0
2018-Jun-13 10:36N 31°56' E 123°41'211.4
2018-Jun-13 10:26N 31°58' E 123°41'511.4
2018-Jun-13 10:00N 32°03' E 123°40'  
2018-Jun-07 20:00N 35°09' E 119°46'3 6.2
2018-Jun-07 19:29N 35°12' E 119°48'  
Track history (hours):
 
Tides and Currents Weather Stations Pressure Air Temp Water Temp Dewpoint Dewpoint Depression Visibility Wind Speed Wind Dir Waves Ship Positions

M/V Sealink

Last reported at 2018-Jun-15 23:28 UTC. Time now 2018-Jun-18 05:38 UTC.
Position N 22°11' E 119°46'.

Length 292 m; draft 8.8 m.

Type: Cargo ship. MMSI: 256588000.

Date/timePositionNaut miles runAvg speedWind from/ knotsBaromVisibWave heightAir tempDewpointWater temp
2018-Jun-15 23:28N 22°11' E 119°46'510.8
2018-Jun-15 23:00N 22°16' E 119°48'611.6
2018-Jun-15 22:30N 22°22' E 119°49'612.2
2018-Jun-15 22:00N 22°28' E 119°49'611.8
2018-Jun-15 21:30N 22°34' E 119°49'611.7
2018-Jun-15 20:59N 22°40' E 119°49'511.5
2018-Jun-15 20:30N 22°45' E 119°50'612.1
2018-Jun-15 20:00N 22°51' E 119°50'  
2018-Jun-13 12:10N 31°39' E 123°39'310.5
2018-Jun-13 11:53N 31°42' E 123°40'1411.0
2018-Jun-13 10:36N 31°56' E 123°41'211.4
2018-Jun-13 10:26N 31°58' E 123°41'511.4
2018-Jun-13 10:00N 32°03' E 123°40'  
2018-Jun-07 20:00N 35°09' E 119°46'3 6.2
2018-Jun-07 19:29N 35°12' E 119°48'  

Dump ship's entire track history